sensor_id;sensor_type;location;lat;lon;timestamp;pressure;altitude;pressure_sealevel;temperature;humidity
59435;BME280;45241;49.768;8.636;2023-04-29T00:00:00;99845.75;;;14.02;100.00
59435;BME280;45241;49.768;8.636;2023-04-29T00:02:25;99854.81;;;14.08;100.00
59435;BME280;45241;49.768;8.636;2023-04-29T00:04:51;99843.50;;;13.99;100.00
59435;BME280;45241;49.768;8.636;2023-04-29T00:07:16;99846.63;;;13.96;100.00
59435;BME280;45241;49.768;8.636;2023-04-29T00:09:41;99845.56;;;13.79;100.00
59435;BME280;45241;49.768;8.636;2023-04-29T00:12:07;99841.53;;;13.88;100.00
59435;BME280;45241;49.768;8.636;2023-04-29T00:14:33;99843.78;;;13.91;100.00
59435;BME280;45241;49.768;8.636;2023-04-29T00:16:59;99838.84;;;13.88;100.00
59435;BME280;45241;49.768;8.636;2023-04-29T00:19:24;99845.72;;;13.84;100.00
59435;BME280;45241;49.768;8.636;2023-04-29T00:21:50;99842.16;;;13.90;100.00
59435;BME280;45241;49.768;8.636;2023-04-29T00:24:16;99836.09;;;13.70;100.00
59435;BME280;45241;49.768;8.636;2023-04-29T00:26:41;99843.31;;;13.51;100.00
59435;BME280;45241;49.768;8.636;2023-04-29T00:29:06;99845.13;;;13.57;100.00
59435;BME280;45241;49.768;8.636;2023-04-29T00:31:32;99844.63;;;13.42;100.00
59435;BME280;45241;49.768;8.636;2023-04-29T00:33:57;99844.63;;;13.42;100.00
59435;BME280;45241;49.768;8.636;2023-04-29T00:36:22;99840.84;;;13.49;100.00
59435;BME280;45241;49.768;8.636;2023-04-29T00:38:48;99846.56;;;13.35;100.00
59435;BME280;45241;49.768;8.636;2023-04-29T00:41:13;99845.22;;;13.44;100.00
59435;BME280;45241;49.768;8.636;2023-04-29T00:43:39;99851.41;;;13.51;100.00
59435;BME280;45241;49.768;8.636;2023-04-29T00:46:04;99852.88;;;13.72;100.00
59435;BME280;45241;49.768;8.636;2023-04-29T00:48:30;99852.13;;;13.65;100.00
59435;BME280;45241;49.768;8.636;2023-04-29T00:50:55;99849.81;;;13.68;100.00
59435;BME280;45241;49.768;8.636;2023-04-29T00:53:21;99854.91;;;13.76;100.00
59435;BME280;45241;49.768;8.636;2023-04-29T00:55:49;99853.91;;;13.71;100.00
59435;BME280;45241;49.768;8.636;2023-04-29T00:58:17;99858.09;;;13.67;100.00
59435;BME280;45241;49.768;8.636;2023-04-29T01:00:42;99860.53;;;13.75;100.00
59435;BME280;45241;49.768;8.636;2023-04-29T01:03:08;99856.00;;;13.69;100.00
59435;BME280;45241;49.768;8.636;2023-04-29T01:05:34;99848.47;;;13.77;100.00
59435;BME280;45241;49.768;8.636;2023-04-29T01:08:18;99854.09;;;13.76;100.00
59435;BME280;45241;49.768;8.636;2023-04-29T01:13:28;99855.38;;;13.73;100.00
59435;BME280;45241;49.768;8.636;2023-04-29T01:18:28;99852.56;;;13.87;100.00
59435;BME280;45241;49.768;8.636;2023-04-29T01:20:57;99853.97;;;13.89;100.00
59435;BME280;45241;49.768;8.636;2023-04-29T01:23:27;99853.38;;;13.87;100.00
59435;BME280;45241;49.768;8.636;2023-04-29T01:25:52;99861.13;;;13.77;100.00
59435;BME280;45241;49.768;8.636;2023-04-29T01:31:11;99856.25;;;13.86;100.00
59435;BME280;45241;49.768;8.636;2023-04-29T01:41:59;99866.66;;;13.82;100.00
59435;BME280;45241;49.768;8.636;2023-04-29T01:44:28;99863.97;;;13.82;100.00
59435;BME280;45241;49.768;8.636;2023-04-29T01:46:56;99860.47;;;13.82;100.00
59435;BME280;45241;49.768;8.636;2023-04-29T01:49:26;99851.53;;;13.63;100.00
59435;BME280;45241;49.768;8.636;2023-04-29T01:51:51;99865.09;;;13.74;100.00
59435;BME280;45241;49.768;8.636;2023-04-29T01:54:17;99850.88;;;13.86;100.00
59435;BME280;45241;49.768;8.636;2023-04-29T01:56:43;99855.16;;;13.75;100.00
59435;BME280;45241;49.768;8.636;2023-04-29T01:59:08;99867.78;;;13.74;100.00
59435;BME280;45241;49.768;8.636;2023-04-29T02:01:35;99869.59;;;13.80;100.00
59435;BME280;45241;49.768;8.636;2023-04-29T02:04:00;99864.75;;;13.89;100.00
59435;BME280;45241;49.768;8.636;2023-04-29T02:06:25;99866.41;;;13.90;100.00
59435;BME280;45241;49.768;8.636;2023-04-29T02:08:52;99870.69;;;13.73;100.00
59435;BME280;45241;49.768;8.636;2023-04-29T02:11:17;99876.69;;;13.75;100.00
59435;BME280;45241;49.768;8.636;2023-04-29T02:13:42;99878.34;;;13.76;100.00
59435;BME280;45241;49.768;8.636;2023-04-29T02:16:09;99875.78;;;13.81;100.00
59435;BME280;45241;49.768;8.636;2023-04-29T02:18:35;99881.41;;;13.79;100.00
59435;BME280;45241;49.768;8.636;2023-04-29T02:21:01;99874.53;;;13.84;100.00
59435;BME280;45241;49.768;8.636;2023-04-29T02:23:26;99881.41;;;13.79;100.00
59435;BME280;45241;49.768;8.636;2023-04-29T02:25:52;99880.69;;;13.91;100.00
59435;BME280;45241;49.768;8.636;2023-04-29T02:28:17;99878.75;;;13.98;100.00
59435;BME280;45241;49.768;8.636;2023-04-29T02:30:43;99888.34;;;13.69;100.00
59435;BME280;45241;49.768;8.636;2023-04-29T02:33:08;99899.31;;;13.92;100.00
59435;BME280;45241;49.768;8.636;2023-04-29T02:35:34;99893.25;;;13.97;100.00
59435;BME280;45241;49.768;8.636;2023-04-29T02:38:00;99894.84;;;13.86;100.00
59435;BME280;45241;49.768;8.636;2023-04-29T02:40:25;99898.19;;;13.82;100.00
59435;BME280;45241;49.768;8.636;2023-04-29T02:42:51;99900.94;;;13.75;100.00
59435;BME280;45241;49.768;8.636;2023-04-29T02:45:16;99901.53;;;13.77;100.00
59435;BME280;45241;49.768;8.636;2023-04-29T02:47:42;99899.47;;;13.72;100.00
59435;BME280;45241;49.768;8.636;2023-04-29T02:50:08;99905.53;;;13.68;100.00
59435;BME280;45241;49.768;8.636;2023-04-29T02:52:33;99901.09;;;13.55;100.00
59435;BME280;45241;49.768;8.636;2023-04-29T02:54:59;99902.13;;;13.54;100.00
59435;BME280;45241;49.768;8.636;2023-04-29T02:57:24;99905.47;;;13.49;100.00
59435;BME280;45241;49.768;8.636;2023-04-29T02:59:49;99906.84;;;13.59;100.00
59435;BME280;45241;49.768;8.636;2023-04-29T03:02:15;99904.72;;;13.67;100.00
59435;BME280;45241;49.768;8.636;2023-04-29T03:04:41;99896.50;;;13.56;100.00
59435;BME280;45241;49.768;8.636;2023-04-29T03:07:06;99904.59;;;13.56;100.00
59435;BME280;45241;49.768;8.636;2023-04-29T03:09:32;99897.56;;;13.55;100.00
59435;BME280;45241;49.768;8.636;2023-04-29T03:11:58;99904.25;;;13.45;100.00
59435;BME280;45241;49.768;8.636;2023-04-29T03:14:23;99894.94;;;13.48;100.00
59435;BME280;45241;49.768;8.636;2023-04-29T03:16:48;99903.16;;;13.53;100.00
59435;BME280;45241;49.768;8.636;2023-04-29T03:19:14;99900.56;;;13.40;100.00
59435;BME280;45241;49.768;8.636;2023-04-29T03:21:40;99908.78;;;13.52;100.00
59435;BME280;45241;49.768;8.636;2023-04-29T03:24:06;99905.91;;;13.46;100.00
59435;BME280;45241;49.768;8.636;2023-04-29T03:26:31;99908.88;;;13.38;100.00
59435;BME280;45241;49.768;8.636;2023-04-29T03:28:56;99905.22;;;13.26;100.00
59435;BME280;45241;49.768;8.636;2023-04-29T03:31:23;99912.69;;;13.24;100.00
59435;BME280;45241;49.768;8.636;2023-04-29T03:33:49;99908.06;;;13.31;100.00
59435;BME280;45241;49.768;8.636;2023-04-29T03:36:15;99916.13;;;13.38;100.00
59435;BME280;45241;49.768;8.636;2023-04-29T03:38:40;99912.00;;;13.35;100.00
59435;BME280;45241;49.768;8.636;2023-04-29T03:41:05;99911.81;;;13.30;100.00
59435;BME280;45241;49.768;8.636;2023-04-29T03:43:31;99909.25;;;13.42;100.00
59435;BME280;45241;49.768;8.636;2023-04-29T03:45:57;99914.72;;;13.29;100.00
59435;BME280;45241;49.768;8.636;2023-04-29T03:48:23;99921.03;;;13.47;100.00
59435;BME280;45241;49.768;8.636;2023-04-29T03:50:48;99922.72;;;13.42;100.00
59435;BME280;45241;49.768;8.636;2023-04-29T03:53:14;99923.38;;;13.37;100.00
59435;BME280;45241;49.768;8.636;2023-04-29T03:55:39;99916.75;;;13.33;100.00
59435;BME280;45241;49.768;8.636;2023-04-29T03:58:05;99918.59;;;13.39;100.00
59435;BME280;45241;49.768;8.636;2023-04-29T04:00:30;99922.56;;;13.37;100.00
59435;BME280;45241;49.768;8.636;2023-04-29T04:02:59;99921.03;;;13.47;100.00
59435;BME280;45241;49.768;8.636;2023-04-29T04:05:24;99930.75;;;13.48;100.00
59435;BME280;45241;49.768;8.636;2023-04-29T04:07:53;99928.22;;;13.54;100.00
59435;BME280;45241;49.768;8.636;2023-04-29T04:10:18;99932.56;;;13.55;100.00
59435;BME280;45241;49.768;8.636;2023-04-29T04:12:44;99940.66;;;13.55;100.00
59435;BME280;45241;49.768;8.636;2023-04-29T04:15:10;99947.97;;;13.47;100.00
59435;BME280;45241;49.768;8.636;2023-04-29T04:17:35;99945.66;;;13.51;100.00
59435;BME280;45241;49.768;8.636;2023-04-29T04:20:01;99952.63;;;13.59;100.00
59435;BME280;45241;49.768;8.636;2023-04-29T04:22:26;99950.56;;;13.61;100.00
59435;BME280;45241;49.768;8.636;2023-04-29T04:24:54;99955.22;;;13.47;100.00
59435;BME280;45241;49.768;8.636;2023-04-29T04:27:19;99950.56;;;13.61;100.00
59435;BME280;45241;49.768;8.636;2023-04-29T04:29:44;99957.72;;;13.73;100.00
59435;BME280;45241;49.768;8.636;2023-04-29T04:32:10;99963.00;;;13.62;100.00
59435;BME280;45241;49.768;8.636;2023-04-29T04:34:35;99955.75;;;13.56;100.00
59435;BME280;45241;49.768;8.636;2023-04-29T04:37:01;99969.53;;;13.72;100.00
59435;BME280;45241;49.768;8.636;2023-04-29T04:39:26;99968.75;;;13.65;100.00
59435;BME280;45241;49.768;8.636;2023-04-29T04:41:51;99969.44;;;13.61;100.00
59435;BME280;45241;49.768;8.636;2023-04-29T04:44:17;99965.91;;;13.60;100.00
59435;BME280;45241;49.768;8.636;2023-04-29T04:46:42;99979.16;;;13.62;100.00
59435;BME280;45241;49.768;8.636;2023-04-29T04:49:07;99980.13;;;13.67;100.00
59435;BME280;45241;49.768;8.636;2023-04-29T04:51:33;99984.34;;;13.57;100.00
59435;BME280;45241;49.768;8.636;2023-04-29T04:53:58;99982.84;;;13.67;100.00
59435;BME280;45241;49.768;8.636;2023-04-29T04:56:23;99988.59;;;13.71;100.00
59435;BME280;45241;49.768;8.636;2023-04-29T04:58:49;99984.66;;;13.73;100.00
59435;BME280;45241;49.768;8.636;2023-04-29T05:01:14;99981.91;;;13.80;100.00
59435;BME280;45241;49.768;8.636;2023-04-29T05:03:39;99985.38;;;13.62;100.00
59435;BME280;45241;49.768;8.636;2023-04-29T05:06:05;99988.94;;;13.81;100.00
59435;BME280;45241;49.768;8.636;2023-04-29T05:08:30;99996.28;;;13.74;100.00
59435;BME280;45241;49.768;8.636;2023-04-29T05:10:55;99998.38;;;13.65;100.00
59435;BME280;45241;49.768;8.636;2023-04-29T05:13:22;99996.97;;;13.63;100.00
59435;BME280;45241;49.768;8.636;2023-04-29T05:15:49;100000.63;;;13.75;100.00
59435;BME280;45241;49.768;8.636;2023-04-29T05:18:14;100001.44;;;13.75;100.00
59435;BME280;45241;49.768;8.636;2023-04-29T05:20:40;100014.69;;;13.77;100.00
59435;BME280;45241;49.768;8.636;2023-04-29T05:23:05;100009.25;;;13.84;100.00
59435;BME280;45241;49.768;8.636;2023-04-29T05:25:31;100013.72;;;13.96;100.00
59435;BME280;45241;49.768;8.636;2023-04-29T05:27:56;100020.22;;;13.89;100.00
59435;BME280;45241;49.768;8.636;2023-04-29T05:30:22;100022.91;;;13.89;100.00
59435;BME280;45241;49.768;8.636;2023-04-29T05:32:47;100025.53;;;13.95;100.00
59435;BME280;45241;49.768;8.636;2023-04-29T05:35:13;100029.50;;;13.93;100.00
59435;BME280;45241;49.768;8.636;2023-04-29T05:37:38;100033.00;;;13.93;100.00
59435;BME280;45241;49.768;8.636;2023-04-29T05:40:04;100043.97;;;13.98;100.00
59435;BME280;45241;49.768;8.636;2023-04-29T05:42:30;100048.81;;;13.90;100.00
59435;BME280;45241;49.768;8.636;2023-04-29T05:44:55;100042.75;;;13.94;100.00
59435;BME280;45241;49.768;8.636;2023-04-29T05:47:20;100056.22;;;13.94;100.00
59435;BME280;45241;49.768;8.636;2023-04-29T05:49:46;100053.97;;;13.91;100.00
59435;BME280;45241;49.768;8.636;2023-04-29T05:52:12;100057.84;;;14.02;100.00
59435;BME280;45241;49.768;8.636;2023-04-29T05:54:37;100059.22;;;14.11;100.00
59435;BME280;45241;49.768;8.636;2023-04-29T05:57:03;100061.19;;;14.22;100.00
59435;BME280;45241;49.768;8.636;2023-04-29T05:59:29;100058.50;;;14.22;100.00
59435;BME280;45241;49.768;8.636;2023-04-29T06:01:58;100069.16;;;14.10;100.00
59435;BME280;45241;49.768;8.636;2023-04-29T06:04:24;100066.09;;;14.07;100.00
59435;BME280;45241;49.768;8.636;2023-04-29T06:06:53;100074.56;;;14.10;100.00
59435;BME280;45241;49.768;8.636;2023-04-29T06:09:21;100077.88;;;14.13;100.00
59435;BME280;45241;49.768;8.636;2023-04-29T06:11:47;100079.44;;;14.27;100.00
59435;BME280;45241;49.768;8.636;2023-04-29T06:14:13;100080.59;;;14.37;100.00
59435;BME280;45241;49.768;8.636;2023-04-29T06:16:39;100086.88;;;14.31;100.00
59435;BME280;45241;49.768;8.636;2023-04-29T06:19:04;100086.88;;;14.00;100.00
59435;BME280;45241;49.768;8.636;2023-04-29T06:21:30;100084.25;;;14.18;100.00
59435;BME280;45241;49.768;8.636;2023-04-29T06:23:56;100091.88;;;14.28;100.00
59435;BME280;45241;49.768;8.636;2023-04-29T06:26:21;100097.63;;;14.38;100.00
59435;BME280;45241;49.768;8.636;2023-04-29T06:28:46;100097.91;;;14.23;100.00
59435;BME280;45241;49.768;8.636;2023-04-29T06:31:12;100098.66;;;14.37;100.00
59435;BME280;45241;49.768;8.636;2023-04-29T06:33:37;100100.66;;;14.48;100.00
59435;BME280;45241;49.768;8.636;2023-04-29T06:36:03;100101.88;;;14.52;100.00
59435;BME280;45241;49.768;8.636;2023-04-29T06:38:29;100115.69;;;14.62;100.00
59435;BME280;45241;49.768;8.636;2023-04-29T06:40:55;100112.97;;;14.62;100.00
59435;BME280;45241;49.768;8.636;2023-04-29T06:43:24;100116.00;;;14.48;100.00
59435;BME280;45241;49.768;8.636;2023-04-29T06:45:50;100123.63;;;14.57;100.00
59435;BME280;45241;49.768;8.636;2023-04-29T06:48:16;100126.25;;;14.39;100.00
59435;BME280;45241;49.768;8.636;2023-04-29T06:51:02;100115.91;;;14.61;100.00
59435;BME280;45241;49.768;8.636;2023-04-29T06:53:27;100123.28;;;14.47;100.00
59435;BME280;45241;49.768;8.636;2023-04-29T06:55:53;100128.31;;;14.37;100.00
59435;BME280;45241;49.768;8.636;2023-04-29T06:58:18;100126.84;;;14.41;100.00
59435;BME280;45241;49.768;8.636;2023-04-29T07:00:48;100125.88;;;14.60;100.00
59435;BME280;45241;49.768;8.636;2023-04-29T07:03:15;100125.66;;;14.62;100.00
59435;BME280;45241;49.768;8.636;2023-04-29T07:05:41;100126.88;;;14.66;100.00
59435;BME280;45241;49.768;8.636;2023-04-29T07:08:09;100127.25;;;14.70;100.00
59435;BME280;45241;49.768;8.636;2023-04-29T07:10:35;100131.03;;;14.62;100.00
59435;BME280;45241;49.768;8.636;2023-04-29T07:13:00;100137.31;;;14.56;100.00
59435;BME280;45241;49.768;8.636;2023-04-29T07:15:26;100135.50;;;14.75;100.00
59435;BME280;45241;49.768;8.636;2023-04-29T07:17:52;100139.81;;;14.57;100.00
59435;BME280;45241;49.768;8.636;2023-04-29T07:20:17;100152.50;;;14.50;100.00
59435;BME280;45241;49.768;8.636;2023-04-29T07:22:43;100154.25;;;14.38;100.00
59435;BME280;45241;49.768;8.636;2023-04-29T07:25:08;100165.66;;;14.40;100.00
59435;BME280;45241;49.768;8.636;2023-04-29T07:27:35;100159.44;;;14.40;100.00
59435;BME280;45241;49.768;8.636;2023-04-29T07:30:01;100168.44;;;14.20;100.00
59435;BME280;45241;49.768;8.636;2023-04-29T07:32:27;100168.78;;;14.37;100.00
59435;BME280;45241;49.768;8.636;2023-04-29T07:34:52;100175.28;;;14.29;100.00
59435;BME280;45241;49.768;8.636;2023-04-29T07:37:18;100180.44;;;14.31;100.00
59435;BME280;45241;49.768;8.636;2023-04-29T07:39:43;100185.97;;;14.43;100.00
59435;BME280;45241;49.768;8.636;2023-04-29T07:42:09;100181.41;;;14.43;100.00
59435;BME280;45241;49.768;8.636;2023-04-29T07:44:35;100185.44;;;14.21;95.25
59435;BME280;45241;49.768;8.636;2023-04-29T07:47:00;100177.56;;;14.26;96.79
59435;BME280;45241;49.768;8.636;2023-04-29T07:49:26;100184.22;;;14.55;95.15
59435;BME280;45241;49.768;8.636;2023-04-29T07:51:52;100183.47;;;14.73;96.08
59435;BME280;45241;49.768;8.636;2023-04-29T07:54:18;100189.16;;;14.64;96.12
59435;BME280;45241;49.768;8.636;2023-04-29T07:56:46;100192.94;;;14.57;95.60
59435;BME280;45241;49.768;8.636;2023-04-29T07:59:11;100197.63;;;14.68;93.08
59435;BME280;45241;49.768;8.636;2023-04-29T08:01:37;100200.34;;;14.61;90.34
59435;BME280;45241;49.768;8.636;2023-04-29T08:04:02;100199.22;;;14.44;94.68
59435;BME280;45241;49.768;8.636;2023-04-29T08:06:27;100211.84;;;14.82;90.83
59435;BME280;45241;49.768;8.636;2023-04-29T08:08:53;100203.72;;;14.57;89.27
59435;BME280;45241;49.768;8.636;2023-04-29T08:11:20;100205.50;;;14.70;88.38
59435;BME280;45241;49.768;8.636;2023-04-29T08:13:48;100211.13;;;14.93;87.90
59435;BME280;45241;49.768;8.636;2023-04-29T08:16:14;100215.47;;;14.94;92.89
59435;BME280;45241;49.768;8.636;2023-04-29T08:18:39;100215.38;;;14.82;85.54
59435;BME280;45241;49.768;8.636;2023-04-29T08:21:05;100220.06;;;14.93;87.70
59435;BME280;45241;49.768;8.636;2023-04-29T08:23:30;100211.75;;;14.95;88.95
59435;BME280;45241;49.768;8.636;2023-04-29T08:25:57;100221.25;;;14.73;89.60
59435;BME280;45241;49.768;8.636;2023-04-29T08:28:22;100224.41;;;14.63;88.75
59435;BME280;45241;49.768;8.636;2023-04-29T08:30:47;100214.53;;;14.82;85.91
59435;BME280;45241;49.768;8.636;2023-04-29T08:33:13;100226.06;;;14.64;85.61
59435;BME280;45241;49.768;8.636;2023-04-29T08:35:40;100225.69;;;14.92;87.67
59435;BME280;45241;49.768;8.636;2023-04-29T08:38:06;100223.91;;;15.04;86.70
59435;BME280;45241;49.768;8.636;2023-04-29T08:40:36;100224.84;;;15.16;84.85
59435;BME280;45241;49.768;8.636;2023-04-29T08:43:05;100223.13;;;15.22;83.35
59435;BME280;45241;49.768;8.636;2023-04-29T08:45:32;100223.50;;;15.25;83.89
59435;BME280;45241;49.768;8.636;2023-04-29T08:47:59;100225.97;;;15.27;81.65
59435;BME280;45241;49.768;8.636;2023-04-29T08:50:26;100233.22;;;15.51;82.62
59435;BME280;45241;49.768;8.636;2023-04-29T08:52:52;100242.34;;;15.57;83.24
59435;BME280;45241;49.768;8.636;2023-04-29T08:55:19;100236.72;;;15.34;84.66
59435;BME280;45241;49.768;8.636;2023-04-29T08:57:45;100234.06;;;15.27;81.34
59435;BME280;45241;49.768;8.636;2023-04-29T09:00:14;100235.19;;;15.44;81.48
59435;BME280;45241;49.768;8.636;2023-04-29T09:02:44;100246.94;;;15.32;82.87
59435;BME280;45241;49.768;8.636;2023-04-29T09:05:09;100248.25;;;14.97;82.53
59435;BME280;45241;49.768;8.636;2023-04-29T09:07:37;100247.16;;;15.05;83.76
59435;BME280;45241;49.768;8.636;2023-04-29T09:10:06;100248.53;;;15.14;83.27
59435;BME280;45241;49.768;8.636;2023-04-29T09:12:32;100256.22;;;15.17;85.57
59435;BME280;45241;49.768;8.636;2023-04-29T09:14:57;100253.91;;;15.14;87.95
59435;BME280;45241;49.768;8.636;2023-04-29T09:17:44;100257.25;;;15.16;84.90
59435;BME280;45241;49.768;8.636;2023-04-29T09:22:52;100255.91;;;15.25;85.78
59435;BME280;45241;49.768;8.636;2023-04-29T09:25:18;100270.00;;;15.27;84.83
59435;BME280;45241;49.768;8.636;2023-04-29T09:27:44;100267.75;;;15.24;83.15
59435;BME280;45241;49.768;8.636;2023-04-29T09:30:09;100270.78;;;15.35;84.47
59435;BME280;45241;49.768;8.636;2023-04-29T09:32:36;100268.13;;;15.03;85.36
59435;BME280;45241;49.768;8.636;2023-04-29T09:37:45;100270.66;;;16.76;76.24
59435;BME280;45241;49.768;8.636;2023-04-29T09:40:33;100276.13;;;16.99;76.09
59435;BME280;45241;49.768;8.636;2023-04-29T09:42:59;100280.84;;;17.04;75.92
59435;BME280;45241;49.768;8.636;2023-04-29T09:45:38;100285.41;;;16.92;75.05
59435;BME280;45241;49.768;8.636;2023-04-29T09:48:06;100286.31;;;16.74;74.08
59435;BME280;45241;49.768;8.636;2023-04-29T09:50:33;100282.53;;;16.57;75.35
59435;BME280;45241;49.768;8.636;2023-04-29T09:52:58;100284.25;;;16.69;77.11
59435;BME280;45241;49.768;8.636;2023-04-29T09:55:25;100287.47;;;16.78;77.40
59435;BME280;45241;49.768;8.636;2023-04-29T09:57:57;100281.25;;;16.78;77.72
59435;BME280;45241;49.768;8.636;2023-04-29T10:00:23;100287.78;;;16.70;76.60
59435;BME280;45241;49.768;8.636;2023-04-29T10:02:50;100290.69;;;16.87;77.17
59435;BME280;45241;49.768;8.636;2023-04-29T10:05:17;100295.16;;;16.63;77.00
59435;BME280;45241;49.768;8.636;2023-04-29T10:07:45;100298.47;;;16.65;76.72
59435;BME280;45241;49.768;8.636;2023-04-29T10:10:11;100301.47;;;16.75;76.49
59435;BME280;45241;49.768;8.636;2023-04-29T10:12:39;100293.72;;;16.12;76.61
59435;BME280;45241;49.768;8.636;2023-04-29T10:15:22;100301.38;;;16.15;77.06
59435;BME280;45241;49.768;8.636;2023-04-29T10:18:17;100301.13;;;16.53;77.84
59435;BME280;45241;49.768;8.636;2023-04-29T10:20:45;100300.44;;;16.76;76.86
59435;BME280;45241;49.768;8.636;2023-04-29T10:23:12;100307.81;;;16.32;77.35
59435;BME280;45241;49.768;8.636;2023-04-29T10:25:39;100306.31;;;16.73;76.07
59435;BME280;45241;49.768;8.636;2023-04-29T10:28:08;100299.28;;;16.65;77.51
59435;BME280;45241;49.768;8.636;2023-04-29T10:30:39;100302.56;;;16.19;79.30
59435;BME280;45241;49.768;8.636;2023-04-29T10:33:06;100310.63;;;16.26;79.76
59435;BME280;45241;49.768;8.636;2023-04-29T10:35:35;100306.19;;;16.13;80.42
59435;BME280;45241;49.768;8.636;2023-04-29T10:38:07;100306.47;;;16.60;79.35
59435;BME280;45241;49.768;8.636;2023-04-29T10:40:43;100314.81;;;16.40;78.27
59435;BME280;45241;49.768;8.636;2023-04-29T10:43:10;100311.31;;;16.21;78.02
59435;BME280;45241;49.768;8.636;2023-04-29T10:45:36;100306.88;;;16.57;76.58
59435;BME280;45241;49.768;8.636;2023-04-29T10:53:14;100312.69;;;16.60;78.91
59435;BME280;45241;49.768;8.636;2023-04-29T10:55:39;100310.25;;;16.89;77.36
59435;BME280;45241;49.768;8.636;2023-04-29T11:01:03;100309.47;;;16.52;79.43
59435;BME280;45241;49.768;8.636;2023-04-29T11:06:13;100316.66;;;16.58;77.73
59435;BME280;45241;49.768;8.636;2023-04-29T11:08:40;100316.00;;;16.92;77.19
59435;BME280;45241;49.768;8.636;2023-04-29T11:11:06;100308.41;;;17.01;77.41
59435;BME280;45241;49.768;8.636;2023-04-29T11:13:37;100304.28;;;16.50;77.33
59435;BME280;45241;49.768;8.636;2023-04-29T11:16:07;100304.34;;;16.62;78.75
59435;BME280;45241;49.768;8.636;2023-04-29T11:18:33;100306.72;;;16.88;78.17
59435;BME280;45241;49.768;8.636;2023-04-29T11:23:36;100294.34;;;16.92;76.94
59435;BME280;45241;49.768;8.636;2023-04-29T11:26:03;100295.72;;;17.25;74.85
59435;BME280;45241;49.768;8.636;2023-04-29T11:28:32;100313.53;;;17.44;75.79
59435;BME280;45241;49.768;8.636;2023-04-29T11:30:58;100306.41;;;17.20;73.48
59435;BME280;45241;49.768;8.636;2023-04-29T11:33:25;100303.88;;;16.65;75.32
59435;BME280;45241;49.768;8.636;2023-04-29T11:35:54;100312.19;;;17.12;75.79
59435;BME280;45241;49.768;8.636;2023-04-29T11:38:27;100306.34;;;16.96;76.11
59435;BME280;45241;49.768;8.636;2023-04-29T11:40:56;100314.41;;;17.03;74.64
59435;BME280;45241;49.768;8.636;2023-04-29T11:43:23;100309.22;;;17.01;74.29
59435;BME280;45241;49.768;8.636;2023-04-29T11:45:49;100310.63;;;17.04;74.02
59435;BME280;45241;49.768;8.636;2023-04-29T11:48:22;100310.44;;;17.17;74.17
59435;BME280;45241;49.768;8.636;2023-04-29T11:50:53;100315.50;;;17.25;74.96
59435;BME280;45241;49.768;8.636;2023-04-29T11:53:22;100312.09;;;17.30;74.13
59435;BME280;45241;49.768;8.636;2023-04-29T11:55:51;100319.16;;;16.41;77.13
59435;BME280;45241;49.768;8.636;2023-04-29T11:58:17;100307.25;;;16.79;75.23
59435;BME280;45241;49.768;8.636;2023-04-29T12:00:46;100315.06;;;16.98;75.00
59435;BME280;45241;49.768;8.636;2023-04-29T12:03:16;100316.84;;;16.44;76.99
59435;BME280;45241;49.768;8.636;2023-04-29T12:08:24;100315.25;;;17.15;74.06
59435;BME280;45241;49.768;8.636;2023-04-29T12:10:51;100319.53;;;17.46;74.31
59435;BME280;45241;49.768;8.636;2023-04-29T12:13:18;100322.38;;;17.51;72.28
59435;BME280;45241;49.768;8.636;2023-04-29T12:15:44;100308.06;;;17.21;73.48
59435;BME280;45241;49.768;8.636;2023-04-29T12:18:11;100314.25;;;17.51;73.10
59435;BME280;45241;49.768;8.636;2023-04-29T12:20:36;100311.16;;;17.36;72.46
59435;BME280;45241;49.768;8.636;2023-04-29T12:23:29;100317.59;;;17.12;74.69
59435;BME280;45241;49.768;8.636;2023-04-29T12:25:56;100318.81;;;17.27;74.04
59435;BME280;45241;49.768;8.636;2023-04-29T12:28:23;100321.75;;;17.26;75.72
59435;BME280;45241;49.768;8.636;2023-04-29T12:30:50;100320.03;;;17.55;72.86
59435;BME280;45241;49.768;8.636;2023-04-29T12:33:27;100326.13;;;17.74;71.21
59435;BME280;45241;49.768;8.636;2023-04-29T12:35:54;100323.31;;;17.57;70.68
59435;BME280;45241;49.768;8.636;2023-04-29T12:40:52;100310.28;;;17.77;69.56
59435;BME280;45241;49.768;8.636;2023-04-29T12:43:17;100319.19;;;18.01;69.96
59435;BME280;45241;49.768;8.636;2023-04-29T12:45:43;100308.22;;;18.08;70.95
59435;BME280;45241;49.768;8.636;2023-04-29T12:48:10;100324.28;;;17.86;69.45
59435;BME280;45241;49.768;8.636;2023-04-29T12:50:37;100318.13;;;17.67;69.67
59435;BME280;45241;49.768;8.636;2023-04-29T12:53:04;100322.44;;;18.38;69.27
59435;BME280;45241;49.768;8.636;2023-04-29T12:55:32;100316.94;;;18.62;66.24
59435;BME280;45241;49.768;8.636;2023-04-29T12:57:58;100313.44;;;19.90;65.65
59435;BME280;45241;49.768;8.636;2023-04-29T13:00:23;100319.66;;;19.86;64.71
59435;BME280;45241;49.768;8.636;2023-04-29T13:02:49;100311.03;;;20.60;63.05
59435;BME280;45241;49.768;8.636;2023-04-29T13:05:15;100313.47;;;20.12;63.44
59435;BME280;45241;49.768;8.636;2023-04-29T13:07:41;100317.38;;;18.70;62.15
59435;BME280;45241;49.768;8.636;2023-04-29T13:10:06;100308.50;;;19.54;62.30
59435;BME280;45241;49.768;8.636;2023-04-29T13:12:32;100308.09;;;18.95;62.64
59435;BME280;45241;49.768;8.636;2023-04-29T13:14:57;100308.75;;;19.52;62.48
59435;BME280;45241;49.768;8.636;2023-04-29T13:17:23;100302.44;;;21.22;60.60
59435;BME280;45241;49.768;8.636;2023-04-29T13:19:48;100308.09;;;20.39;59.95
59435;BME280;45241;49.768;8.636;2023-04-29T13:22:13;100301.84;;;19.78;61.32
59435;BME280;45241;49.768;8.636;2023-04-29T13:24:38;100306.16;;;19.74;60.48